Архив погоды в Армавире

Метеограмма Армавир
Суббота, 21 Октября
Время местн. Темп Ветер Видим Явления Облачность нижн/средн/верх Атм. давл. Влжн Точка росы ВНГО R Сост. почвы Tg s
Напр Скр Прв ур.ст ур.м изм
09:00 +8.7° Ю-В 1 - 10 км - облачно 750 764 +0.4 93% +7.7° 600 м - - - -
06:00 +6.7° Ю-В 2 - 10 км - ясно 750 764 -0.3 97% +6.2° более 2.5 км 0 - - -
03:00 +6.5° Ю,Ю-В 1 - 4 км туман ясно 750 765 -0.3 97% +6° более 2.5 км - - - -
00:00 +7.2° Ю 1 - 500 м туман, небо видно ясно 750 765 -0.5 96% +6.6° более 2.5 км - - - -
Пятница, 20 Октября
Время местн. Темп Ветер Видим Явления Облачность нижн/средн/верх Атм. давл. Влжн Точка росы ВНГО R Сост. почвы Tg s
Напр Скр Прв ур.ст ур.м изм
21:00 +9.9° штиль 0 - 10 км - ясно 751 765 +0.4 95% +9.2° более 2.5 км - - - -
18:00 +14.1° С 1 - 10 км - облачно 750 765 +0.2 79% +10.6° более 2.5 км 0 - - -
15:00 +19.6° С-З 3 - 10 км - облачно 750 764 -0.6 53% +9.7° более 2.5 км - - - -
12:00 +18.8° З 2 - 10 км - переменная облачность 751 765 -0.8 52% +8.7° более 2.5 км - - - -
09:00 +10.1° Ю-В 2 - 10 км - переменная облачность 751 766 +0.3 84% +7.5° более 2.5 км - - - -
06:00 +6.7° Ю-В 2 - 10 км - переменная облачность 751 766 +0.2 95% +6° более 2.5 км 0 Влажная (без луж) +4° -
03:00 +7.4° Ю-В 1 - 10 км - облачно 751 766 -0.2 97% +6.9° более 2.5 км - - - -
00:00 +8.6° Ю,Ю-В 1 - 10 км - облачно 751 766 -0.3 96% +8° более 2.5 км - - - -
Четверг, 19 Октября
Время местн. Темп Ветер Видим Явления Облачность нижн/средн/верх Атм. давл. Влжн Точка росы ВНГО R Сост. почвы Tg s
Напр Скр Прв ур.ст ур.м изм
21:00 +9.4° Ю-В 1 - 10 км - облачно 751 766 +0.1 95% +8.7° более 2.5 км - - - -
18:00 +12.9° штиль 0 - 10 км - облачно 751 766 -0.2 86% +10.6° более 2.5 км 0 - - -
15:00 +19.9° Ю,Ю-З 1 - 10 км - облачно 752 766 -1.1 49% +8.8° более 2.5 км - - - -
12:00 +17.6° В 1 - 10 км - облачно 753 767 -0.7 65% +11° 1 км - - - -
09:00 +11.6° Ю-В 2 - 4 км дымка {туман} ясно 753 768 +0.2 94% +10.6° более 2.5 км - - - -
06:00 +9.4° Ю-В 1 - 500 м туман, небо видно облачно 753 768 -0.3 95% +8.7° более 2.5 км 0 Влажная (без луж) +8° -
03:00 +12.5° Ю 1 - 10 км - облачно 754 768 0 94% +11.5° 1 км - - - -
00:00 +12.7° Ю 1 - 10 км - облачно 754 768 -0.2 92% +11.4° 1 км - - - -
Среда, 18 Октября
Время местн. Темп Ветер Видим Явления Облачность нижн/средн/верх Атм. давл. Влжн Точка росы ВНГО R Сост. почвы Tg s
Напр Скр Прв ур.ст ур.м изм
21:00 +12.5° Ю-В 1 - 10 км - облачно 754 768 -0.2 92% +11.2° - - - - -
18:00 +14.6° В,Ю-В 1 - 10 км - облачно 754 768 +0.1 83% +11.8° 1 км 0.3 - - -
15:00 +15.9° штиль 0 - 10 км - облачно 754 768 -0.6 76% +11.7° 1 км - - - -
12:00 +15.4° З 2 - 10 км - облачно 754 769 -0.3 80% +11.9° 1 км - - - -
09:00 +13° Ю-В 1 - 10 км небо без изменений {ливневые осадки} облачно 755 769 +0.8 96% +12.4° 1 км - - - -
06:00 +12° штиль 0 - 10 км ливневый дождь облачно 754 768 +0.5 96% +11.4° 600 м 2 Влажная (без луж) +12° -